createdAt,value
2019-04-10T00:00:07.776Z,-2.90
2019-04-10T00:02:37.810Z,-2.79
2019-04-10T00:05:07.648Z,-2.74
2019-04-10T00:07:39.687Z,-2.69
2019-04-10T00:10:09.745Z,-2.64
2019-04-10T00:12:40.349Z,-2.58
2019-04-10T00:15:12.716Z,-2.53
2019-04-10T00:17:45.086Z,-2.37
2019-04-10T00:20:16.218Z,-2.28
2019-04-10T00:22:46.528Z,-2.19
2019-04-10T00:25:17.070Z,-2.12
2019-04-10T00:27:48.216Z,-2.06
2019-04-10T00:30:20.725Z,-2.00
2019-04-10T00:32:50.619Z,-1.92
2019-04-10T00:35:23.501Z,-1.83
2019-04-10T00:37:55.530Z,-1.72
2019-04-10T00:40:28.022Z,-1.63
2019-04-10T00:42:59.330Z,-1.60
2019-04-10T00:45:29.948Z,-1.62
2019-04-10T00:47:59.583Z,-1.59
2019-04-10T00:50:29.231Z,-1.56
2019-04-10T00:53:03.429Z,-1.56
2019-04-10T00:55:32.889Z,-1.56
2019-04-10T00:58:03.681Z,-1.55
2019-04-10T01:00:37.517Z,-1.53
2019-04-10T01:03:07.563Z,-1.50
2019-04-10T01:05:37.711Z,-1.48
2019-04-10T01:08:08.704Z,-1.49
2019-04-10T01:10:38.800Z,-1.47
2019-04-10T01:14:05.463Z,-1.45
2019-04-10T01:16:35.843Z,-1.43
2019-04-10T01:19:05.821Z,-1.38
2019-04-10T01:21:35.275Z,-1.35
2019-04-10T01:24:05.758Z,-1.32
2019-04-10T01:26:35.066Z,-1.29
2019-04-10T01:29:05.151Z,-1.27
2019-04-10T01:31:37.284Z,-1.27
2019-04-10T01:34:07.506Z,-1.23
2019-04-10T01:36:37.477Z,-1.19
2019-04-10T01:39:10.437Z,-1.17
2019-04-10T01:41:39.936Z,-1.17
2019-04-10T01:44:11.052Z,-1.14
2019-04-10T01:46:42.603Z,-1.13
2019-04-10T01:49:13.874Z,-1.09
2019-04-10T01:51:45.781Z,-1.11
2019-04-10T01:54:15.209Z,-1.07
2019-04-10T01:56:48.215Z,-1.06
2019-04-10T01:59:23.627Z,-1.04
2019-04-10T02:02:07.224Z,-0.99
2019-04-10T02:04:36.959Z,-0.93
2019-04-10T02:07:11.535Z,-0.89
2019-04-10T02:09:41.634Z,-0.86
2019-04-10T02:12:14.636Z,-0.82
2019-04-10T02:14:44.713Z,-0.73
2019-04-10T02:17:14.740Z,-0.67
2019-04-10T02:19:48.259Z,-0.61
2019-04-10T02:22:17.884Z,-0.56
2019-04-10T02:25:28.425Z,-0.55
2019-04-10T02:27:58.543Z,-0.51
2019-04-10T02:30:30.282Z,-0.46
2019-04-10T02:33:02.064Z,-0.42
2019-04-10T02:35:34.203Z,-0.30
2019-04-10T02:38:21.166Z,-0.16
2019-04-10T02:40:37.360Z,-0.14
2019-04-10T02:43:08.354Z,-0.10
2019-04-10T02:45:40.366Z,0.00
2019-04-10T02:48:12.153Z,0.04
2019-04-10T02:50:45.003Z,0.06
2019-04-10T02:53:15.304Z,0.16
2019-04-10T02:55:45.223Z,0.22
2019-04-10T02:58:16.035Z,0.46
2019-04-10T03:00:46.400Z,0.93
2019-04-10T03:03:16.159Z,1.36
2019-04-10T03:05:46.663Z,1.54
2019-04-10T03:08:17.403Z,1.68
2019-04-10T03:10:53.551Z,1.86
2019-04-10T03:13:19.804Z,1.90
2019-04-10T03:15:51.694Z,1.99
2019-04-10T03:18:23.122Z,2.05
2019-04-10T03:20:55.115Z,2.02
2019-04-10T03:23:25.205Z,2.02
2019-04-10T03:25:54.711Z,2.01
2019-04-10T03:28:24.970Z,2.04
2019-04-10T03:30:56.501Z,1.99
2019-04-10T03:33:47.238Z,1.95
2019-04-10T03:36:15.631Z,1.96
2019-04-10T03:38:56.752Z,1.99
2019-04-10T03:41:24.146Z,1.92
2019-04-10T03:43:54.761Z,1.89
2019-04-10T03:46:24.200Z,1.89
2019-04-10T03:48:57.748Z,1.92
2019-04-10T03:51:30.303Z,1.88
2019-04-10T03:54:00.038Z,1.88
2019-04-10T03:56:34.388Z,1.94
2019-04-10T03:59:04.166Z,1.90
2019-04-10T04:01:35.320Z,1.88
2019-04-10T04:04:07.192Z,1.82
2019-04-10T04:06:37.212Z,1.81
2019-04-10T04:09:11.942Z,1.82
2019-04-10T04:11:41.999Z,1.80
2019-04-10T04:14:14.454Z,1.82
2019-04-10T04:16:45.444Z,1.78
2019-04-10T04:19:17.712Z,1.83
2019-04-10T04:21:56.367Z,1.83
2019-04-10T04:24:26.636Z,1.77
2019-04-10T04:26:58.584Z,1.73
2019-04-10T04:29:28.783Z,1.65
2019-04-10T04:31:59.117Z,1.51
2019-04-10T04:34:31.757Z,1.56
2019-04-10T04:37:01.111Z,1.49
2019-04-10T04:39:31.542Z,1.44
2019-04-10T04:42:03.047Z,1.41
2019-04-10T04:44:33.313Z,1.37
2019-04-10T04:47:06.399Z,1.40
2019-04-10T04:49:37.820Z,1.41
2019-04-10T04:52:11.817Z,1.40
2019-04-10T04:54:44.045Z,1.32
2019-04-10T04:57:14.693Z,1.29
2019-04-10T04:59:48.518Z,1.17
2019-04-10T05:02:20.025Z,1.13
2019-04-10T05:04:53.516Z,1.10
2019-04-10T05:07:26.374Z,1.12
2019-04-10T05:09:56.709Z,1.10
2019-04-10T05:12:27.706Z,1.12
2019-04-10T05:15:09.571Z,1.14
2019-04-10T05:17:39.841Z,1.17
2019-04-10T05:20:11.253Z,1.13
2019-04-10T05:22:41.611Z,1.12
2019-04-10T05:25:13.263Z,1.10
2019-04-10T05:27:44.748Z,1.01
2019-04-10T05:30:14.462Z,0.98
2019-04-10T05:32:45.914Z,0.99
2019-04-10T05:35:17.563Z,0.88
2019-04-10T05:37:48.420Z,0.93
2019-04-10T05:40:19.922Z,0.79
2019-04-10T05:42:49.248Z,0.98
2019-04-10T05:45:18.594Z,1.12
2019-04-10T05:47:48.199Z,1.12
2019-04-10T05:50:19.909Z,1.03
2019-04-10T05:52:49.688Z,1.10
2019-04-10T05:55:20.356Z,1.16
2019-04-10T05:57:51.390Z,1.10
2019-04-10T06:00:22.975Z,1.10
2019-04-10T06:02:52.851Z,1.08
2019-04-10T06:05:22.410Z,1.10
2019-04-10T06:07:52.334Z,1.06
2019-04-10T06:10:23.004Z,1.08
2019-04-10T06:12:53.021Z,1.12
2019-04-10T06:15:23.201Z,0.81
2019-04-10T06:17:54.432Z,0.83
2019-04-10T06:20:25.099Z,0.97
2019-04-10T06:22:59.022Z,1.01
2019-04-10T06:25:28.880Z,1.02
2019-04-10T06:27:59.680Z,1.06
2019-04-10T06:30:30.581Z,1.09
2019-04-10T06:33:00.118Z,1.05
2019-04-10T06:35:30.599Z,1.12
2019-04-10T06:38:02.256Z,1.21
2019-04-10T06:40:31.984Z,1.22
2019-04-10T06:43:06.496Z,1.28
2019-04-10T06:45:36.697Z,1.27
2019-04-10T06:48:07.552Z,1.37
2019-04-10T06:50:37.165Z,1.53
2019-04-10T06:53:08.713Z,1.71
2019-04-10T06:55:40.906Z,1.79
2019-04-10T06:58:12.388Z,2.14
2019-04-10T07:00:46.668Z,3.09
2019-04-10T07:03:14.889Z,3.34
2019-04-10T07:06:00.506Z,3.01
2019-04-10T07:08:22.475Z,3.06
2019-04-10T07:11:01.992Z,3.10
2019-04-10T07:13:26.047Z,3.26
2019-04-10T07:15:58.067Z,3.41
2019-04-10T07:18:26.675Z,3.61
2019-04-10T07:21:01.503Z,3.77
2019-04-10T07:23:31.866Z,3.95
2019-04-10T07:26:01.742Z,3.99
2019-04-10T07:28:31.759Z,3.77
2019-04-10T07:31:05.333Z,3.87
2019-04-10T07:33:40.613Z,4.85
2019-04-10T07:36:14.143Z,6.75
2019-04-10T07:38:43.498Z,8.38
2019-04-10T07:41:19.413Z,8.68
2019-04-10T07:43:44.760Z,10.26
2019-04-10T07:46:15.233Z,10.44
2019-04-10T07:48:45.573Z,9.73
2019-04-10T07:51:15.335Z,11.34
2019-04-10T07:53:45.170Z,12.34
2019-04-10T07:56:18.014Z,12.04
2019-04-10T07:58:48.257Z,10.81
2019-04-10T08:01:19.936Z,11.48
2019-04-10T08:03:51.395Z,10.14
2019-04-10T08:06:21.043Z,8.94
2019-04-10T08:08:51.278Z,9.64
2019-04-10T08:11:21.902Z,9.83
2019-04-10T08:13:53.289Z,10.20
2019-04-10T08:16:27.447Z,10.54
2019-04-10T08:18:57.911Z,11.51
2019-04-10T08:21:29.459Z,11.09
2019-04-10T08:24:00.581Z,9.99
2019-04-10T08:26:30.404Z,11.14
2019-04-10T08:29:02.202Z,11.96
2019-04-10T08:31:34.492Z,13.27
2019-04-10T08:34:04.003Z,13.95
2019-04-10T08:36:35.306Z,13.79
2019-04-10T08:39:07.154Z,12.97
2019-04-10T08:41:37.268Z,13.34
2019-04-10T08:44:06.892Z,12.72
2019-04-10T08:46:37.809Z,12.80
2019-04-10T08:49:07.810Z,14.08
2019-04-10T08:51:39.394Z,10.25
2019-04-10T08:54:09.990Z,12.35
2019-04-10T08:56:40.955Z,11.88
2019-04-10T08:59:13.842Z,12.55
2019-04-10T09:01:45.192Z,12.47
2019-04-10T09:04:14.830Z,12.40
2019-04-10T09:06:46.009Z,12.26
2019-04-10T09:09:15.517Z,13.32
2019-04-10T09:11:45.110Z,13.88
2019-04-10T09:14:14.622Z,13.86
2019-04-10T09:16:44.851Z,13.13
2019-04-10T09:19:16.286Z,13.03
2019-04-10T09:21:47.978Z,13.31
2019-04-10T09:24:17.546Z,12.52
2019-04-10T09:26:48.686Z,11.90
2019-04-10T09:29:21.879Z,12.42
2019-04-10T09:31:56.316Z,12.87
2019-04-10T09:34:27.994Z,13.17
2019-04-10T09:36:57.725Z,12.94
2019-04-10T09:39:29.598Z,13.46
2019-04-10T09:41:59.455Z,13.52
2019-04-10T09:44:29.762Z,13.49
2019-04-10T09:47:00.022Z,13.41
2019-04-10T09:49:38.973Z,13.19
2019-04-10T09:52:02.740Z,13.08
2019-04-10T09:54:32.957Z,13.40
2019-04-10T09:57:03.502Z,12.73
2019-04-10T09:59:39.278Z,13.45
2019-04-10T10:02:09.209Z,12.94
2019-04-10T10:04:39.733Z,13.49
2019-04-10T10:07:10.284Z,13.77
2019-04-10T10:09:43.111Z,13.96
2019-04-10T10:12:13.636Z,13.56
2019-04-10T10:14:44.317Z,13.84
2019-04-10T10:17:16.785Z,13.77
2019-04-10T10:19:48.492Z,13.85
2019-04-10T10:22:17.947Z,14.37
2019-04-10T10:24:47.347Z,13.78
2019-04-10T10:27:17.761Z,15.21
2019-04-10T10:29:48.102Z,15.22
2019-04-10T10:32:21.272Z,13.97
2019-04-10T10:34:50.891Z,11.87
2019-04-10T10:37:20.269Z,12.51
2019-04-10T10:39:52.835Z,12.89
2019-04-10T10:42:24.000Z,13.62
2019-04-10T10:44:58.481Z,12.54
2019-04-10T10:47:29.268Z,11.48
2019-04-10T10:50:01.547Z,12.26
2019-04-10T10:52:35.360Z,14.34
2019-04-10T10:55:07.542Z,13.41
2019-04-10T10:57:40.119Z,13.40
2019-04-10T11:00:13.086Z,11.29
2019-04-10T11:02:41.614Z,10.01
2019-04-10T11:05:13.748Z,8.26
2019-04-10T11:07:43.039Z,7.60
2019-04-10T11:10:19.655Z,6.48
2019-04-10T11:12:46.675Z,6.27
2019-04-10T11:15:18.565Z,5.69
2019-04-10T11:17:51.901Z,5.90
2019-04-10T11:20:21.891Z,6.00
2019-04-10T11:22:51.322Z,6.20
2019-04-10T11:25:22.146Z,6.24
2019-04-10T11:27:52.164Z,6.21
2019-04-10T11:30:22.435Z,6.12
2019-04-10T11:32:54.811Z,5.75
2019-04-10T11:35:25.275Z,5.39
2019-04-10T11:40:27.978Z,5.54
2019-04-10T11:43:04.756Z,5.68
2019-04-10T11:45:41.115Z,5.70
2019-04-10T11:48:05.995Z,5.88
2019-04-10T11:50:37.997Z,5.91
2019-04-10T11:53:09.699Z,5.52
2019-04-10T11:55:45.236Z,5.34
2019-04-10T11:58:11.260Z,5.26
2019-04-10T12:00:52.507Z,5.15
2019-04-10T12:03:18.570Z,5.01
2019-04-10T12:05:49.120Z,4.71
2019-04-10T12:08:45.263Z,4.67
2019-04-10T12:11:10.767Z,4.53
2019-04-10T12:13:24.136Z,4.74
2019-04-10T12:15:53.650Z,4.92
2019-04-10T12:18:26.838Z,4.99
2019-04-10T12:20:59.725Z,4.76
2019-04-10T12:23:29.286Z,4.72
2019-04-10T12:26:01.284Z,4.82
2019-04-10T12:28:30.742Z,4.68
2019-04-10T12:31:01.767Z,4.50
2019-04-10T12:33:32.354Z,4.50
2019-04-10T12:36:02.437Z,4.66
2019-04-10T12:38:39.575Z,4.69
2019-04-10T12:41:15.135Z,4.73
2019-04-10T12:43:45.216Z,4.66
2019-04-10T12:46:14.960Z,4.70
2019-04-10T12:48:45.647Z,4.63
2019-04-10T12:51:17.303Z,4.73
2019-04-10T12:53:47.769Z,4.54
2019-04-10T12:56:26.320Z,4.44
2019-04-10T12:58:55.680Z,4.20
2019-04-10T13:01:26.944Z,4.10
2019-04-10T13:03:59.919Z,3.76
2019-04-10T13:06:31.725Z,3.88
2019-04-10T13:09:12.439Z,3.86
2019-04-10T13:11:49.391Z,3.86
2019-04-10T13:14:20.143Z,3.88
2019-04-10T13:16:52.096Z,3.89
2019-04-10T13:19:22.020Z,3.52
2019-04-10T13:21:53.695Z,3.56
2019-04-10T13:24:23.774Z,3.60
2019-04-10T13:26:57.023Z,3.65
2019-04-10T13:29:30.024Z,3.67
2019-04-10T13:32:03.461Z,3.74
2019-04-10T13:34:33.373Z,3.67
2019-04-10T13:37:06.193Z,3.76
2019-04-10T13:39:35.745Z,3.76
2019-04-10T13:42:07.323Z,3.97
2019-04-10T13:44:40.443Z,4.04
2019-04-10T13:47:13.430Z,4.15
2019-04-10T13:49:44.203Z,4.38
2019-04-10T13:52:18.319Z,4.46
2019-04-10T13:54:50.930Z,4.36
2019-04-10T13:57:20.619Z,4.28
2019-04-10T13:59:50.105Z,4.18
2019-04-10T14:02:31.220Z,4.18
2019-04-10T14:05:05.254Z,4.07
2019-04-10T14:07:36.429Z,3.99
2019-04-10T14:10:07.386Z,3.76
2019-04-10T14:12:39.013Z,3.67
2019-04-10T14:15:09.745Z,3.70
2019-04-10T14:17:41.656Z,3.42
2019-04-10T14:20:17.423Z,3.33
2019-04-10T14:26:16.153Z,3.20
2019-04-10T14:28:47.835Z,3.23
2019-04-10T14:31:24.528Z,3.24
2019-04-10T14:33:54.604Z,3.13
2019-04-10T14:36:24.361Z,3.06
2019-04-10T14:38:55.019Z,2.67
2019-04-10T14:41:27.571Z,2.47
2019-04-10T14:43:58.931Z,2.31
2019-04-10T14:46:28.603Z,2.32
2019-04-10T14:49:00.664Z,2.45
2019-04-10T14:51:34.917Z,2.41
2019-04-10T14:54:07.777Z,2.39
2019-04-10T14:56:40.160Z,2.31
2019-04-10T14:59:11.985Z,2.27
2019-04-10T15:01:42.053Z,2.26
2019-04-10T15:04:12.874Z,2.26
2019-04-10T15:06:48.017Z,2.07
2019-04-10T15:09:26.030Z,2.03
2019-04-10T15:11:57.392Z,1.94
2019-04-10T15:14:30.687Z,1.84
2019-04-10T15:17:07.983Z,1.88
2019-04-10T15:19:41.209Z,1.86
2019-04-10T15:22:11.565Z,1.90
2019-04-10T15:24:42.720Z,2.02
2019-04-10T15:27:17.370Z,2.06
2019-04-10T15:29:49.015Z,2.10
2019-04-10T15:32:22.376Z,2.10
2019-04-10T15:34:53.619Z,2.12
2019-04-10T15:37:26.669Z,2.21
2019-04-10T15:40:12.245Z,2.28
2019-04-10T15:42:32.555Z,2.34
2019-04-10T15:45:08.387Z,2.38
2019-04-10T15:47:49.280Z,2.39
2019-04-10T15:50:13.878Z,2.47
2019-04-10T15:52:43.409Z,2.47
2019-04-10T15:55:16.601Z,2.50
2019-04-10T15:57:53.220Z,2.58
2019-04-10T16:00:19.314Z,2.64
2019-04-10T16:02:51.566Z,2.59
2019-04-10T16:05:24.281Z,2.63
2019-04-10T16:07:55.194Z,2.71
2019-04-10T16:10:46.202Z,2.68
2019-04-10T16:13:24.070Z,2.72
2019-04-10T16:15:54.703Z,2.76
2019-04-10T16:18:25.402Z,2.75
2019-04-10T16:20:55.559Z,2.76
2019-04-10T16:23:47.621Z,2.76
2019-04-10T16:26:18.793Z,2.71
2019-04-10T16:28:49.055Z,2.66
2019-04-10T16:31:21.579Z,2.72
2019-04-10T16:33:52.820Z,2.72
2019-04-10T16:36:23.402Z,2.67
2019-04-10T16:38:53.271Z,2.64
2019-04-10T16:41:26.875Z,2.70
2019-04-10T16:44:00.468Z,2.76
2019-04-10T16:46:33.717Z,2.69
2019-04-10T16:49:06.558Z,2.64
2019-04-10T16:51:39.209Z,2.67
2019-04-10T16:54:11.066Z,2.64
2019-04-10T16:56:40.642Z,2.71
2019-04-10T16:59:10.613Z,2.56
2019-04-10T17:01:39.891Z,2.56
2019-04-10T17:04:09.250Z,2.56
2019-04-10T17:06:38.809Z,2.53
2019-04-10T17:09:10.972Z,2.48
2019-04-10T17:11:40.953Z,2.45
2019-04-10T17:14:13.002Z,2.38
2019-04-10T17:16:43.970Z,2.32
2019-04-10T17:19:13.916Z,2.29
2019-04-10T17:21:47.742Z,2.28
2019-04-10T17:24:19.320Z,2.26
2019-04-10T17:26:48.962Z,2.25
2019-04-10T17:29:18.708Z,2.21
2019-04-10T17:31:49.306Z,2.17
2019-04-10T17:34:20.791Z,2.12
2019-04-10T17:36:51.475Z,2.11
2019-04-10T17:39:22.889Z,2.09
2019-04-10T17:41:53.342Z,2.06
2019-04-10T17:44:23.492Z,2.07
2019-04-10T17:46:53.377Z,2.06
2019-04-10T17:49:23.429Z,2.05
2019-04-10T17:51:52.937Z,2.00
2019-04-10T17:54:24.941Z,1.97
2019-04-10T17:56:54.898Z,1.91
2019-04-10T17:59:24.797Z,1.85
2019-04-10T18:01:57.009Z,1.81
2019-04-10T18:04:29.808Z,1.77
2019-04-10T18:06:59.640Z,1.71
2019-04-10T18:09:32.750Z,1.70
2019-04-10T18:12:03.963Z,1.69
2019-04-10T18:14:37.955Z,1.69
2019-04-10T18:17:07.904Z,1.70
2019-04-10T18:19:38.669Z,1.71
2019-04-10T18:22:10.226Z,1.70
2019-04-10T18:24:45.393Z,1.68
2019-04-10T18:27:18.440Z,1.66
2019-04-10T18:29:48.151Z,1.62
2019-04-10T18:32:19.020Z,1.58
2019-04-10T18:34:48.453Z,1.54
2019-04-10T18:37:22.017Z,1.50
2019-04-10T18:39:51.611Z,1.44
2019-04-10T18:42:26.612Z,1.45
2019-04-10T18:44:57.392Z,1.42
2019-04-10T18:47:27.154Z,1.38
2019-04-10T18:49:56.564Z,1.39
2019-04-10T18:52:29.588Z,1.36
2019-04-10T18:54:58.557Z,1.32
2019-04-10T18:57:27.871Z,1.26
2019-04-10T19:00:16.844Z,1.21
2019-04-10T19:03:05.480Z,1.20
2019-04-10T19:05:41.828Z,1.20
2019-04-10T19:08:13.319Z,1.20
2019-04-10T19:10:43.252Z,1.21
2019-04-10T19:13:13.046Z,1.17
2019-04-10T19:15:44.986Z,1.17
2019-04-10T19:18:16.828Z,1.17
2019-04-10T19:20:49.158Z,1.19
2019-04-10T19:23:19.475Z,1.19
2019-04-10T19:25:49.142Z,1.19
2019-04-10T19:28:28.021Z,1.21
2019-04-10T19:31:08.696Z,1.21
2019-04-10T19:33:31.367Z,1.21
2019-04-10T19:36:02.243Z,1.22
2019-04-10T19:38:31.754Z,1.22
2019-04-10T19:41:01.090Z,1.26
2019-04-10T19:43:35.783Z,1.28
2019-04-10T19:46:08.266Z,1.30
2019-04-10T19:48:39.378Z,1.31
2019-04-10T19:51:10.418Z,1.38
2019-04-10T19:53:44.365Z,1.46
2019-04-10T19:56:18.154Z,1.51
2019-04-10T19:58:49.008Z,1.52
2019-04-10T20:01:19.091Z,1.55
2019-04-10T20:03:48.436Z,1.53
2019-04-10T20:06:22.317Z,1.54
2019-04-10T20:08:52.944Z,1.50
2019-04-10T20:11:37.560Z,1.53
2019-04-10T20:14:01.472Z,1.54
2019-04-10T20:16:33.360Z,1.54
2019-04-10T20:19:05.420Z,1.56
2019-04-10T20:21:36.616Z,1.63
2019-04-10T20:24:08.354Z,1.58
2019-04-10T20:26:39.152Z,1.60
2019-04-10T20:29:08.660Z,1.60
2019-04-10T20:31:41.781Z,1.60
2019-04-10T20:34:13.628Z,1.63
2019-04-10T20:36:44.832Z,1.71
2019-04-10T20:39:14.935Z,1.66
2019-04-10T20:41:52.343Z,1.72
2019-04-10T20:44:20.719Z,1.69
2019-04-10T20:46:50.739Z,1.66
2019-04-10T20:49:20.445Z,1.66
2019-04-10T20:51:50.459Z,1.63
2019-04-10T20:54:28.706Z,1.68
2019-04-10T20:56:59.200Z,1.67
2019-04-10T20:59:28.849Z,1.64
2019-04-10T21:01:58.147Z,1.58
2019-04-10T21:04:29.678Z,1.63
2019-04-10T21:06:59.206Z,1.63
2019-04-10T21:09:29.765Z,1.61
2019-04-10T21:12:05.284Z,1.65
2019-04-10T21:14:30.294Z,1.64
2019-04-10T21:17:00.383Z,1.57
2019-04-10T21:19:29.691Z,1.57
2019-04-10T21:21:59.540Z,1.58
2019-04-10T21:24:29.462Z,1.56
2019-04-10T21:27:01.224Z,1.52
2019-04-10T21:29:48.466Z,1.55
2019-04-10T21:32:46.063Z,1.50
2019-04-10T21:35:18.767Z,1.48
2019-04-10T21:37:48.690Z,1.48
2019-04-10T21:40:18.656Z,1.51
2019-04-10T21:42:51.910Z,1.46
2019-04-10T21:45:22.277Z,1.41
2019-04-10T21:47:54.315Z,1.41
2019-04-10T21:50:26.782Z,1.38
2019-04-10T21:53:03.958Z,1.39
2019-04-10T21:55:33.841Z,1.39
2019-04-10T21:58:06.122Z,1.36
2019-04-10T22:00:52.922Z,1.38
2019-04-10T22:03:23.847Z,1.35
2019-04-10T22:06:03.625Z,1.32
2019-04-10T22:08:50.229Z,1.33
2019-04-10T22:11:25.329Z,1.28
2019-04-10T22:13:54.884Z,1.19
2019-04-10T22:16:28.166Z,1.18
2019-04-10T22:18:58.166Z,1.17
2019-04-10T22:21:27.562Z,1.17
2019-04-10T22:23:56.938Z,1.13
2019-04-10T22:26:29.798Z,1.11
2019-04-10T22:28:59.131Z,1.07
2019-04-10T22:31:29.535Z,1.07
2019-04-10T22:33:59.020Z,1.05
2019-04-10T22:36:31.176Z,1.02
2019-04-10T22:39:00.758Z,1.02
2019-04-10T22:41:33.766Z,1.00
2019-04-10T22:44:03.302Z,0.98
2019-04-10T22:46:34.231Z,0.96
2019-04-10T22:49:04.269Z,0.94
2019-04-10T22:51:33.571Z,0.97
2019-04-10T22:54:06.113Z,1.00
2019-04-10T22:56:35.819Z,0.97
2019-04-10T22:59:08.117Z,0.98
2019-04-10T23:01:39.874Z,0.96
2019-04-10T23:04:12.241Z,0.93
2019-04-10T23:06:41.892Z,0.93
2019-04-10T23:09:20.190Z,0.93
2019-04-10T23:11:50.249Z,0.96
2019-04-10T23:14:20.786Z,0.95
2019-04-10T23:16:50.548Z,0.90
2019-04-10T23:19:25.727Z,0.89
2019-04-10T23:22:00.964Z,0.88
2019-04-10T23:24:30.316Z,0.87
2019-04-10T23:26:59.759Z,0.83
2019-04-10T23:29:29.908Z,0.81
2019-04-10T23:32:04.193Z,0.79
2019-04-10T23:34:35.356Z,0.76
2019-04-10T23:37:07.091Z,0.78
2019-04-10T23:39:40.732Z,0.76
2019-04-10T23:42:12.847Z,0.75
2019-04-10T23:44:42.921Z,0.72
2019-04-10T23:47:12.276Z,0.72
2019-04-10T23:49:44.148Z,0.73
2019-04-10T23:52:14.464Z,0.70
2019-04-10T23:54:43.833Z,0.68
2019-04-10T23:57:13.594Z,0.66
2019-04-10T23:59:44.834Z,0.63
